Hlavní strana
METAR-TAF:

METAR-TAF

Letiště :

Destin-Fort Walton Beach Airport

Destin, Florida, Spojené státy americké

zeměpisná šířka: 30-23-36N, zeměpisná délka: 086-28-03W, výška: 6 m

Aktuální stav počasí

Zpráva byla vytvořena před 32 minutami, v 01:08 UTC
Východojihovýchodní vítr 13 kt
Teplota 19°C
Vlhkost vzduchu 94%
Tlak 1020 hPa
Viditelnost: 16.1 km
Skoro jasno ve výšce 900 ft
Zataženo ve výšce 8500 ft

METAR: KDTS 190108Z 12013KT 10SM FEW009 OVC085 19/18 A3013 RMK AO2 T01890178

Čas: 19:40 (01:40 UTC)


TAF: chybějící

Stav a předpovědi počasí z více než 4 000 letišť (zprávy METAR a TAF).

Červené a žluté tečky na mapě představují dostupné meteorologické stanice.

Když kurzor umístíte na tečku, zobrazí se název stanice.

Pak kliknutím zobrazíte stav a předpověď počasí.

Chcete-li změnit mapu, kliknutím na zelené tlačítko se znaménkem +mapu přiblížíte, kliknutím na zelené tlačítko se znaménkem – mapu oddálíte a kliknutím na zelené šipky přejdete na sousední mapy.


METAR-TAF: